createdAt,value
2023-01-28T00:00:37.420Z,82.93
2023-01-28T00:01:37.424Z,82.93
2023-01-28T00:02:37.489Z,83.04
2023-01-28T00:03:37.425Z,83.04
2023-01-28T00:04:37.376Z,83.04
2023-01-28T00:05:37.374Z,83.04
2023-01-28T00:06:37.379Z,83.04
2023-01-28T00:07:37.338Z,83.14
2023-01-28T00:08:37.337Z,83.14
2023-01-28T00:09:37.325Z,82.87
2023-01-28T00:10:37.305Z,82.97
2023-01-28T00:11:37.287Z,83.07
2023-01-28T00:12:37.295Z,83.28
2023-01-28T00:13:37.279Z,83.39
2023-01-28T00:14:37.262Z,83.18
2023-01-28T00:15:37.245Z,83.07
2023-01-28T00:16:37.247Z,82.97
2023-01-28T00:17:37.228Z,82.87
2023-01-28T00:18:37.288Z,82.97
2023-01-28T00:19:37.210Z,82.97
2023-01-28T00:20:37.209Z,82.97
2023-01-28T00:21:37.181Z,82.97
2023-01-28T00:22:37.205Z,82.87
2023-01-28T00:23:37.170Z,82.87
2023-01-28T00:24:37.193Z,82.87
2023-01-28T00:25:37.136Z,82.87
2023-01-28T00:26:37.124Z,82.97
2023-01-28T00:27:37.130Z,82.93
2023-01-28T00:28:37.106Z,82.93
2023-01-28T00:29:37.177Z,82.93
2023-01-28T00:30:37.162Z,82.87
2023-01-28T00:31:37.112Z,82.65
2023-01-28T00:32:37.068Z,82.55
2023-01-28T00:33:37.062Z,82.65
2023-01-28T00:34:37.065Z,82.65
2023-01-28T00:35:37.053Z,82.55
2023-01-28T00:36:37.023Z,82.55
2023-01-28T00:37:37.004Z,82.45
2023-01-28T00:38:36.994Z,82.41
2023-01-28T00:39:36.996Z,82.41
2023-01-28T00:40:36.987Z,82.41
2023-01-28T00:41:36.984Z,82.14
2023-01-28T00:42:36.953Z,82.03
2023-01-28T00:43:36.947Z,82.14
2023-01-28T00:44:36.943Z,82.14
2023-01-28T00:45:36.961Z,82.14
2023-01-28T00:46:36.922Z,82.14
2023-01-28T00:47:36.886Z,82.03
2023-01-28T00:48:36.882Z,81.93
2023-01-28T00:49:36.899Z,81.93
2023-01-28T00:50:36.875Z,81.93
2023-01-28T00:51:36.839Z,82.03
2023-01-28T00:52:36.835Z,82.03
2023-01-28T00:53:36.835Z,82.03
2023-01-28T00:54:36.833Z,82.03
2023-01-28T00:55:36.800Z,81.72
2023-01-28T00:56:36.789Z,81.72
2023-01-28T00:57:36.796Z,81.72
2023-01-28T00:58:36.771Z,81.82
2023-01-28T00:59:36.785Z,81.82
2023-01-28T01:00:36.766Z,81.93
2023-01-28T01:01:36.774Z,81.93
2023-01-28T01:02:36.753Z,81.62
2023-01-28T01:03:36.719Z,81.62
2023-01-28T01:04:36.716Z,81.72
2023-01-28T01:05:36.697Z,81.51
2023-01-28T01:06:36.720Z,81.51
2023-01-28T01:07:36.673Z,81.51
2023-01-28T01:08:36.662Z,81.51
2023-01-28T01:09:36.650Z,81.51
2023-01-28T01:10:36.651Z,81.62
2023-01-28T01:11:36.656Z,81.62
2023-01-28T01:12:36.610Z,81.62
2023-01-28T01:13:36.602Z,81.62
2023-01-28T01:14:36.583Z,81.62
2023-01-28T01:15:36.619Z,81.72
2023-01-28T01:16:36.572Z,81.72
2023-01-28T01:17:36.568Z,81.82
2023-01-28T01:18:36.545Z,81.82
2023-01-28T01:19:36.548Z,81.82
2023-01-28T01:20:36.534Z,81.93
2023-01-28T01:21:36.505Z,81.93
2023-01-28T01:22:36.500Z,81.93
2023-01-28T01:23:36.496Z,82.03
2023-01-28T01:24:36.478Z,82.14
2023-01-28T01:25:36.485Z,82.03
2023-01-28T01:26:36.455Z,81.93
2023-01-28T01:27:36.435Z,81.89
2023-01-28T01:28:36.452Z,81.82
2023-01-28T01:29:36.432Z,81.82
2023-01-28T01:30:36.423Z,81.82
2023-01-28T01:31:36.466Z,81.82
2023-01-28T01:32:36.388Z,81.82
2023-01-28T01:33:36.371Z,81.82
2023-01-28T01:34:36.386Z,81.99
2023-01-28T01:35:36.353Z,81.99
2023-01-28T01:36:36.358Z,81.89
2023-01-28T01:37:36.387Z,81.89
2023-01-28T01:38:36.315Z,81.79
2023-01-28T01:39:36.311Z,81.68
2023-01-28T01:40:36.307Z,81.58
2023-01-28T01:41:36.284Z,81.47
2023-01-28T01:42:36.293Z,81.47
2023-01-28T01:43:36.270Z,81.58
2023-01-28T01:44:36.255Z,81.47
2023-01-28T01:45:36.263Z,81.58
2023-01-28T01:46:36.227Z,81.68
2023-01-28T01:47:36.230Z,81.68
2023-01-28T01:48:36.200Z,81.58
2023-01-28T01:49:36.194Z,81.37
2023-01-28T01:50:36.199Z,81.30
2023-01-28T01:51:36.187Z,81.30
2023-01-28T01:52:36.159Z,81.41
2023-01-28T01:53:36.144Z,81.62
2023-01-28T01:54:36.142Z,81.82
2023-01-28T01:55:37.886Z,81.93
2023-01-28T01:56:36.127Z,82.03
2023-01-28T01:57:36.161Z,82.03
2023-01-28T01:58:36.089Z,81.96
2023-01-28T01:59:36.079Z,82.07
2023-01-28T02:00:36.086Z,82.07
2023-01-28T02:01:36.068Z,82.07
2023-01-28T02:02:36.061Z,82.17
2023-01-28T02:03:36.110Z,82.28
2023-01-28T02:04:36.034Z,82.38
2023-01-28T02:05:36.009Z,82.38
2023-01-28T02:06:36.003Z,82.28
2023-01-28T02:07:35.998Z,82.28
2023-01-28T02:08:36.004Z,82.17
2023-01-28T02:09:36.013Z,82.28
2023-01-28T02:10:35.955Z,82.28
2023-01-28T02:11:35.948Z,82.28
2023-01-28T02:12:35.975Z,82.28
2023-01-28T02:13:35.939Z,82.38
2023-01-28T02:14:35.910Z,82.42
2023-01-28T02:15:35.900Z,82.42
2023-01-28T02:16:35.938Z,82.53
2023-01-28T02:17:35.878Z,82.63
2023-01-28T02:18:35.889Z,82.63
2023-01-28T02:19:35.857Z,82.73
2023-01-28T02:20:35.871Z,82.63
2023-01-28T02:21:35.840Z,82.53
2023-01-28T02:22:35.831Z,82.53
2023-01-28T02:23:35.817Z,82.63
2023-01-28T02:24:35.823Z,82.73
2023-01-28T02:25:35.811Z,82.73
2023-01-28T02:26:35.774Z,82.84
2023-01-28T02:27:35.765Z,82.84
2023-01-28T02:28:35.773Z,82.84
2023-01-28T02:29:35.737Z,82.84
2023-01-28T02:30:35.844Z,82.73
2023-01-28T02:31:35.869Z,82.73
2023-01-28T02:32:35.716Z,82.84
2023-01-28T02:33:35.698Z,82.94
2023-01-28T02:34:35.687Z,82.94
2023-01-28T02:35:35.716Z,83.04
2023-01-28T02:36:35.681Z,83.04
2023-01-28T02:37:35.651Z,82.94
2023-01-28T02:38:35.643Z,82.94
2023-01-28T02:39:35.634Z,82.42
2023-01-28T02:40:35.631Z,82.42
2023-01-28T02:41:35.625Z,82.42
2023-01-28T02:42:35.623Z,82.42
2023-01-28T02:43:35.593Z,82.42
2023-01-28T02:44:35.568Z,82.42
2023-01-28T02:45:35.573Z,82.31
2023-01-28T02:46:35.601Z,82.35
2023-01-28T02:47:35.557Z,82.46
2023-01-28T02:48:35.522Z,82.53
2023-01-28T02:49:35.531Z,82.42
2023-01-28T02:50:35.508Z,82.31
2023-01-28T02:51:35.507Z,82.21
2023-01-28T02:52:35.506Z,82.10
2023-01-28T02:53:35.506Z,82.00
2023-01-28T02:54:35.458Z,81.79
2023-01-28T02:55:35.465Z,81.83
2023-01-28T02:56:35.448Z,81.83
2023-01-28T02:57:35.420Z,81.93
2023-01-28T02:58:35.417Z,81.93
2023-01-28T02:59:35.455Z,81.83
2023-01-28T03:00:35.392Z,81.73
2023-01-28T03:01:35.409Z,81.62
2023-01-28T03:02:35.388Z,81.62
2023-01-28T03:03:35.361Z,81.41
2023-01-28T03:04:35.363Z,81.41
2023-01-28T03:05:35.373Z,81.41
2023-01-28T03:06:35.325Z,81.41
2023-01-28T03:07:35.322Z,81.41
2023-01-28T03:08:35.299Z,81.41
2023-01-28T03:09:35.288Z,81.31
2023-01-28T03:10:35.283Z,81.21
2023-01-28T03:11:35.295Z,81.31
2023-01-28T03:12:35.271Z,81.31
2023-01-28T03:13:35.252Z,81.21
2023-01-28T03:14:35.236Z,81.31
2023-01-28T03:15:35.292Z,81.41
2023-01-28T03:16:35.233Z,81.31
2023-01-28T03:17:35.221Z,81.31
2023-01-28T03:18:35.203Z,81.31
2023-01-28T03:19:35.195Z,81.31
2023-01-28T03:20:35.166Z,81.31
2023-01-28T03:21:35.270Z,81.31
2023-01-28T03:22:35.160Z,81.21
2023-01-28T03:23:35.132Z,81.21
2023-01-28T03:24:35.131Z,81.31
2023-01-28T03:25:35.127Z,81.31
2023-01-28T03:26:35.112Z,81.31
2023-01-28T03:27:35.098Z,81.38
2023-01-28T03:28:35.123Z,81.38
2023-01-28T03:29:35.068Z,81.38
2023-01-28T03:30:35.107Z,81.38
2023-01-28T03:31:35.080Z,81.27
2023-01-28T03:32:35.034Z,81.27
2023-01-28T03:33:35.029Z,81.27
2023-01-28T03:34:35.018Z,81.38
2023-01-28T03:35:35.026Z,81.38
2023-01-28T03:36:35.001Z,81.52
2023-01-28T03:37:35.003Z,81.52
2023-01-28T03:38:34.972Z,81.52
2023-01-28T03:39:34.953Z,81.52
2023-01-28T03:40:34.953Z,81.62
2023-01-28T03:41:34.958Z,81.62
2023-01-28T03:42:34.926Z,81.62
2023-01-28T03:43:34.922Z,81.52
2023-01-28T03:44:34.904Z,81.52
2023-01-28T03:45:34.907Z,81.62
2023-01-28T03:46:34.937Z,81.73
2023-01-28T03:47:34.925Z,81.62
2023-01-28T03:48:34.859Z,81.62
2023-01-28T03:49:34.849Z,81.52
2023-01-28T03:50:34.847Z,81.52
2023-01-28T03:51:34.855Z,81.52
2023-01-28T03:52:34.829Z,81.52
2023-01-28T03:53:34.816Z,81.41
2023-01-28T03:54:34.786Z,81.41
2023-01-28T03:55:34.784Z,81.21
2023-01-28T03:56:34.773Z,81.21
2023-01-28T03:57:34.775Z,81.21
2023-01-28T03:58:34.756Z,81.21
2023-01-28T03:59:34.761Z,80.79
2023-01-28T04:00:34.726Z,80.79
2023-01-28T04:01:34.780Z,80.89
2023-01-28T04:02:34.740Z,80.89
2023-01-28T04:03:34.716Z,80.89
2023-01-28T04:04:34.686Z,80.68
2023-01-28T04:05:34.696Z,80.68
2023-01-28T04:06:34.675Z,80.58
2023-01-28T04:07:34.659Z,80.47
2023-01-28T04:08:34.645Z,80.47
2023-01-28T04:09:34.664Z,80.27
2023-01-28T04:10:34.635Z,80.41
2023-01-28T04:11:34.610Z,80.51
2023-01-28T04:12:34.590Z,80.62
2023-01-28T04:13:34.715Z,80.37
2023-01-28T04:14:34.579Z,80.47
2023-01-28T04:15:34.593Z,80.51
2023-01-28T04:16:34.564Z,80.47
2023-01-28T04:17:34.529Z,80.47
2023-01-28T04:18:34.547Z,80.37
2023-01-28T04:19:34.530Z,80.27
2023-01-28T04:20:34.508Z,80.05
2023-01-28T04:21:34.487Z,79.95
2023-01-28T04:22:34.479Z,79.88
2023-01-28T04:23:34.470Z,79.88
2023-01-28T04:24:34.476Z,79.88
2023-01-28T04:25:34.457Z,79.99
2023-01-28T04:26:34.444Z,79.88
2023-01-28T04:27:34.426Z,79.78
2023-01-28T04:28:34.426Z,79.88
2023-01-28T04:29:34.422Z,79.88
2023-01-28T04:30:34.461Z,79.88
2023-01-28T04:31:34.469Z,79.78
2023-01-28T04:32:34.365Z,79.68
2023-01-28T04:33:34.355Z,79.68
2023-01-28T04:34:34.358Z,79.68
2023-01-28T04:35:34.337Z,79.68
2023-01-28T04:36:34.331Z,79.68
2023-01-28T04:37:34.315Z,79.68
2023-01-28T04:38:34.301Z,79.68
2023-01-28T04:39:34.288Z,79.57
2023-01-28T04:40:34.291Z,79.68
2023-01-28T04:41:34.291Z,79.78
2023-01-28T04:42:34.258Z,79.57
2023-01-28T04:43:34.251Z,79.47
2023-01-28T04:44:34.255Z,79.47
2023-01-28T04:45:34.224Z,79.36
2023-01-28T04:46:34.276Z,79.26
2023-01-28T04:47:34.223Z,79.15
2023-01-28T04:48:34.189Z,79.15
2023-01-28T04:49:34.206Z,79.26
2023-01-28T04:50:34.275Z,79.15
2023-01-28T04:51:34.160Z,79.26
2023-01-28T04:52:34.158Z,79.36
2023-01-28T04:53:34.154Z,79.36
2023-01-28T04:54:34.123Z,79.47
2023-01-28T04:55:34.113Z,79.36
2023-01-28T04:56:34.122Z,79.36
2023-01-28T04:57:34.094Z,79.36
2023-01-28T04:58:34.073Z,79.57
2023-01-28T04:59:34.085Z,79.36
2023-01-28T05:00:34.194Z,79.47
2023-01-28T05:01:34.042Z,79.47
2023-01-28T05:02:34.026Z,79.15
2023-01-28T05:03:36.265Z,79.26
2023-01-28T05:04:34.032Z,79.15
2023-01-28T05:05:34.021Z,79.26
2023-01-28T05:06:34.023Z,79.36
2023-01-28T05:07:33.994Z,79.36
2023-01-28T05:08:33.971Z,79.36
2023-01-28T05:09:33.962Z,79.47
2023-01-28T05:10:33.957Z,79.36
2023-01-28T05:11:33.949Z,79.36
2023-01-28T05:12:33.924Z,79.05
2023-01-28T05:13:33.935Z,78.98
2023-01-28T05:14:33.908Z,78.98
2023-01-28T05:15:33.883Z,79.08
2023-01-28T05:16:33.877Z,79.08
2023-01-28T05:17:33.868Z,79.19
2023-01-28T05:18:33.874Z,79.19
2023-01-28T05:19:34.777Z,79.29
2023-01-28T05:20:33.839Z,79.19
2023-01-28T05:21:33.817Z,79.29
2023-01-28T05:22:33.817Z,79.19
2023-01-28T05:23:33.795Z,79.15
2023-01-28T05:24:33.830Z,79.15
2023-01-28T05:25:33.783Z,79.19
2023-01-28T05:26:33.780Z,79.19
2023-01-28T05:27:33.752Z,79.29
2023-01-28T05:28:33.744Z,79.40
2023-01-28T05:29:33.740Z,79.36
2023-01-28T05:30:33.800Z,79.47
2023-01-28T05:31:33.708Z,79.47
2023-01-28T05:32:33.721Z,79.36
2023-01-28T05:33:33.694Z,79.05
2023-01-28T05:34:33.683Z,78.94
2023-01-28T05:35:33.709Z,79.05
2023-01-28T05:36:33.676Z,79.15
2023-01-28T05:37:33.644Z,79.36
2023-01-28T05:38:33.638Z,79.15
2023-01-28T05:39:33.628Z,78.94
2023-01-28T05:40:33.615Z,78.84
2023-01-28T05:41:33.614Z,78.84
2023-01-28T05:42:34.342Z,78.94
2023-01-28T05:43:33.577Z,78.84
2023-01-28T05:44:33.560Z,78.74
2023-01-28T05:45:33.696Z,78.74
2023-01-28T05:46:33.555Z,78.74
2023-01-28T05:47:33.540Z,78.84
2023-01-28T05:48:33.531Z,78.84
2023-01-28T05:49:33.523Z,78.74
2023-01-28T05:50:33.495Z,78.94
2023-01-28T05:51:33.503Z,78.74
2023-01-28T05:52:33.473Z,78.53
2023-01-28T05:53:33.559Z,78.25
2023-01-28T05:54:33.505Z,78.35
2023-01-28T05:55:33.444Z,78.35
2023-01-28T05:56:33.448Z,78.46
2023-01-28T05:57:33.437Z,78.35
2023-01-28T05:58:33.405Z,78.35
2023-01-28T05:59:33.408Z,78.35
2023-01-28T06:00:33.399Z,78.46
2023-01-28T06:01:33.371Z,78.56
2023-01-28T06:02:33.447Z,78.67
2023-01-28T06:03:33.375Z,78.67
2023-01-28T06:04:33.342Z,78.56
2023-01-28T06:05:33.408Z,78.35
2023-01-28T06:06:33.342Z,78.14
2023-01-28T06:07:33.319Z,78.04
2023-01-28T06:08:33.303Z,78.25
2023-01-28T06:09:33.311Z,78.25
2023-01-28T06:10:33.301Z,78.25
2023-01-28T06:11:33.271Z,78.35
2023-01-28T06:12:33.270Z,78.35
2023-01-28T06:13:33.260Z,78.35
2023-01-28T06:14:33.419Z,78.25
2023-01-28T06:15:33.262Z,77.94
2023-01-28T06:16:33.204Z,77.83
2023-01-28T06:17:33.207Z,77.83
2023-01-28T06:18:33.192Z,78.04
2023-01-28T06:19:33.183Z,78.14
2023-01-28T06:20:33.171Z,78.25
2023-01-28T06:21:33.187Z,78.14
2023-01-28T06:22:33.140Z,78.14
2023-01-28T06:23:33.143Z,78.25
2023-01-28T06:24:33.139Z,78.35
2023-01-28T06:25:33.118Z,78.25
2023-01-28T06:26:33.092Z,78.25
2023-01-28T06:27:33.088Z,78.25
2023-01-28T06:28:33.077Z,78.04
2023-01-28T06:29:33.069Z,77.94
2023-01-28T06:30:33.110Z,78.04
2023-01-28T06:31:33.060Z,78.04
2023-01-28T06:32:33.037Z,77.94
2023-01-28T06:33:33.012Z,78.04
2023-01-28T06:34:33.043Z,78.04
2023-01-28T06:35:32.994Z,78.04
2023-01-28T06:36:32.991Z,77.94
2023-01-28T06:37:33.019Z,78.04
2023-01-28T06:38:32.970Z,77.94
2023-01-28T06:39:32.952Z,77.94
2023-01-28T06:40:32.952Z,77.94
2023-01-28T06:41:32.934Z,77.73
2023-01-28T06:42:32.922Z,77.73
2023-01-28T06:43:32.926Z,77.73
2023-01-28T06:44:32.907Z,77.87
2023-01-28T06:45:32.891Z,77.87
2023-01-28T06:46:32.929Z,77.97
2023-01-28T06:47:32.877Z,78.08
2023-01-28T06:48:32.854Z,78.14
2023-01-28T06:49:32.864Z,78.14
2023-01-28T06:50:32.822Z,78.25
2023-01-28T06:51:32.819Z,78.25
2023-01-28T06:52:32.831Z,78.14
2023-01-28T06:53:32.815Z,78.14
2023-01-28T06:54:32.783Z,78.25
2023-01-28T06:55:32.798Z,78.21
2023-01-28T06:56:32.763Z,77.73
2023-01-28T06:57:32.755Z,77.59
2023-01-28T06:58:32.763Z,77.62
2023-01-28T06:59:32.739Z,77.51
2023-01-28T07:00:32.721Z,77.51
2023-01-28T07:01:32.812Z,77.51
2023-01-28T07:02:32.789Z,77.51
2023-01-28T07:03:32.711Z,77.62
2023-01-28T07:04:32.699Z,77.51
2023-01-28T07:05:32.659Z,77.62
2023-01-28T07:06:32.649Z,77.51
2023-01-28T07:07:32.651Z,77.41
2023-01-28T07:08:32.625Z,77.24
2023-01-28T07:09:32.617Z,77.14
2023-01-28T07:10:32.623Z,77.24
2023-01-28T07:11:32.592Z,77.34
2023-01-28T07:12:32.591Z,77.34
2023-01-28T07:13:32.579Z,77.24
2023-01-28T07:14:32.577Z,77.34
2023-01-28T07:15:32.549Z,77.34
2023-01-28T07:16:32.576Z,77.24
2023-01-28T07:17:32.584Z,77.34
2023-01-28T07:18:32.525Z,77.34
2023-01-28T07:19:32.519Z,77.51
2023-01-28T07:20:32.522Z,77.51
2023-01-28T07:21:32.479Z,77.41
2023-01-28T07:22:32.474Z,77.31
2023-01-28T07:23:32.475Z,77.41
2023-01-28T07:24:32.452Z,77.34
2023-01-28T07:25:32.431Z,77.24
2023-01-28T07:26:32.453Z,77.20
2023-01-28T07:27:32.417Z,77.41
2023-01-28T07:28:32.408Z,77.62
2023-01-28T07:29:32.459Z,77.51
2023-01-28T07:30:32.378Z,77.51
2023-01-28T07:31:32.468Z,77.41
2023-01-28T07:32:32.392Z,77.41
2023-01-28T07:33:32.350Z,77.45
2023-01-28T07:34:32.344Z,77.24
2023-01-28T07:35:32.360Z,77.31
2023-01-28T07:36:32.319Z,77.34
2023-01-28T07:37:32.308Z,77.03
2023-01-28T07:38:32.328Z,77.03
2023-01-28T07:39:32.283Z,77.24
2023-01-28T07:40:32.265Z,77.14
2023-01-28T07:41:32.274Z,77.03
2023-01-28T07:42:32.260Z,76.93
2023-01-28T07:43:32.243Z,76.93
2023-01-28T07:44:32.237Z,77.03
2023-01-28T07:45:32.219Z,77.24
2023-01-28T07:46:32.209Z,77.14
2023-01-28T07:47:32.250Z,77.14
2023-01-28T07:48:32.187Z,77.24
2023-01-28T07:49:32.170Z,77.34
2023-01-28T07:50:32.201Z,77.24
2023-01-28T07:51:32.161Z,77.24
2023-01-28T07:52:32.131Z,77.34
2023-01-28T07:53:32.144Z,77.45
2023-01-28T07:54:32.117Z,77.45
2023-01-28T07:55:32.096Z,77.24
2023-01-28T07:56:32.118Z,77.24
2023-01-28T07:57:32.086Z,77.14
2023-01-28T07:58:32.076Z,77.14
2023-01-28T07:59:32.076Z,77.24
2023-01-28T08:00:32.054Z,77.03
2023-01-28T08:01:32.150Z,77.03
2023-01-28T08:02:32.047Z,77.14
2023-01-28T08:03:32.012Z,77.24
2023-01-28T08:04:32.092Z,77.24
2023-01-28T08:05:32.133Z,77.24
2023-01-28T08:06:31.997Z,77.14
2023-01-28T08:07:31.972Z,76.93
2023-01-28T08:08:31.971Z,76.93
2023-01-28T08:09:31.954Z,77.14
2023-01-28T08:10:31.942Z,77.14
2023-01-28T08:11:31.944Z,77.03
2023-01-28T08:12:31.929Z,77.03
2023-01-28T08:13:31.901Z,76.93
2023-01-28T08:14:31.898Z,77.03
2023-01-28T08:15:34.133Z,77.00
2023-01-28T08:16:31.885Z,77.00
2023-01-28T08:17:31.878Z,77.00
2023-01-28T08:18:31.846Z,76.89
2023-01-28T08:19:31.835Z,76.89
2023-01-28T08:20:31.838Z,76.89
2023-01-28T08:21:31.820Z,77.00
2023-01-28T08:22:31.806Z,77.10
2023-01-28T08:23:31.800Z,76.96
2023-01-28T08:24:31.856Z,77.06
2023-01-28T08:25:31.781Z,77.06
2023-01-28T08:26:31.769Z,76.96
2023-01-28T08:27:31.781Z,76.75
2023-01-28T08:28:31.741Z,76.65
2023-01-28T08:29:31.752Z,76.65
2023-01-28T08:30:31.747Z,76.65
2023-01-28T08:31:31.786Z,76.44
2023-01-28T08:32:31.709Z,76.33
2023-01-28T08:33:31.697Z,76.44
2023-01-28T08:34:31.668Z,76.23
2023-01-28T08:35:31.667Z,76.33
2023-01-28T08:36:31.645Z,76.44
2023-01-28T08:37:31.632Z,76.54
2023-01-28T08:38:31.652Z,76.96
2023-01-28T08:39:31.620Z,76.96
2023-01-28T08:40:31.622Z,76.96
2023-01-28T08:41:31.592Z,76.92
2023-01-28T08:42:31.591Z,76.92
2023-01-28T08:43:31.591Z,76.92
2023-01-28T08:44:31.585Z,76.54
2023-01-28T08:45:31.559Z,76.33
2023-01-28T08:46:31.559Z,76.44
2023-01-28T08:47:31.528Z,76.54
2023-01-28T08:48:31.515Z,76.44
2023-01-28T08:49:31.502Z,76.44
2023-01-28T08:50:31.520Z,76.44
2023-01-28T08:51:31.482Z,76.68
2023-01-28T08:52:31.474Z,76.86
2023-01-28T08:53:31.458Z,76.75
2023-01-28T08:54:31.461Z,76.65
2023-01-28T08:55:31.446Z,76.65
2023-01-28T08:56:31.444Z,76.65
2023-01-28T08:57:31.413Z,76.86
2023-01-28T08:58:31.411Z,76.79
2023-01-28T08:59:31.388Z,76.79
2023-01-28T09:00:31.396Z,76.79
2023-01-28T09:01:31.414Z,76.89
2023-01-28T09:02:32.470Z,77.10
2023-01-28T09:03:31.384Z,77.00
2023-01-28T09:04:31.338Z,77.10
2023-01-28T09:05:31.328Z,77.31
2023-01-28T09:06:31.337Z,77.27
2023-01-28T09:07:31.315Z,77.17
2023-01-28T09:08:31.297Z,77.06
2023-01-28T09:09:31.291Z,76.96
2023-01-28T09:10:31.288Z,76.65
2023-01-28T09:11:31.251Z,76.65
2023-01-28T09:12:31.263Z,76.57
2023-01-28T09:13:31.243Z,76.68
2023-01-28T09:14:31.230Z,76.75
2023-01-28T09:15:31.222Z,76.65
2023-01-28T09:16:31.252Z,76.47
2023-01-28T09:17:31.192Z,76.61
2023-01-28T09:18:31.207Z,76.51
2023-01-28T09:19:31.176Z,76.61
2023-01-28T09:20:31.157Z,76.68
2023-01-28T09:21:31.184Z,76.89
2023-01-28T09:22:31.142Z,77.00
2023-01-28T09:23:31.124Z,77.31
2023-01-28T09:24:31.176Z,77.31
2023-01-28T09:25:31.127Z,77.31
2023-01-28T09:26:31.096Z,77.31
2023-01-28T09:27:31.104Z,77.41
2023-01-28T09:28:31.071Z,77.41
2023-01-28T09:29:31.051Z,77.41
2023-01-28T09:30:31.142Z,77.41
2023-01-28T09:31:31.067Z,77.41
2023-01-28T09:32:31.026Z,77.41
2023-01-28T09:33:31.032Z,77.20
2023-01-28T09:34:31.003Z,77.00
2023-01-28T09:35:30.993Z,77.00
2023-01-28T09:36:30.977Z,77.20
2023-01-28T09:37:30.966Z,77.20
2023-01-28T09:38:30.970Z,77.41
2023-01-28T09:39:30.969Z,77.31
2023-01-28T09:40:30.928Z,77.31
2023-01-28T09:41:30.934Z,77.41
2023-01-28T09:42:30.916Z,77.10
2023-01-28T09:43:30.918Z,77.00
2023-01-28T09:44:30.893Z,76.89
2023-01-28T09:45:30.888Z,76.79
2023-01-28T09:46:30.924Z,76.89
2023-01-28T09:47:30.870Z,76.86
2023-01-28T09:48:30.850Z,76.86
2023-01-28T09:49:30.837Z,76.86
2023-01-28T09:50:30.831Z,76.65
2023-01-28T09:51:30.820Z,76.44
2023-01-28T09:52:30.862Z,76.54
2023-01-28T09:53:30.814Z,76.61
2023-01-28T09:54:30.779Z,76.75
2023-01-28T09:55:30.776Z,76.44
2023-01-28T09:56:30.779Z,76.44
2023-01-28T09:57:30.744Z,76.65
2023-01-28T09:58:30.744Z,76.54
2023-01-28T09:59:30.727Z,76.44
2023-01-28T10:00:30.753Z,76.54
2023-01-28T10:01:30.713Z,76.68
2023-01-28T10:02:30.695Z,76.47
2023-01-28T10:03:30.732Z,76.37
2023-01-28T10:04:30.670Z,76.57
2023-01-28T10:05:30.679Z,76.47
2023-01-28T10:06:30.639Z,76.06
2023-01-28T10:07:30.641Z,75.74
2023-01-28T10:08:30.630Z,76.06
2023-01-28T10:09:30.609Z,76.06
2023-01-28T10:10:30.621Z,76.16
2023-01-28T10:11:30.613Z,76.26
2023-01-28T10:12:30.582Z,76.06
2023-01-28T10:13:30.575Z,75.85
2023-01-28T10:14:30.586Z,76.06
2023-01-28T10:15:30.590Z,76.16
2023-01-28T10:16:30.533Z,76.12
2023-01-28T10:17:30.653Z,76.23
2023-01-28T10:18:30.524Z,75.81
2023-01-28T10:19:30.506Z,75.39
2023-01-28T10:20:30.523Z,75.53
2023-01-28T10:21:30.489Z,75.53
2023-01-28T10:22:30.463Z,75.50
2023-01-28T10:23:30.472Z,75.43
2023-01-28T10:24:30.591Z,75.63
2023-01-28T10:25:30.438Z,75.71
2023-01-28T10:26:30.440Z,75.63
2023-01-28T10:27:30.429Z,75.32
2023-01-28T10:28:30.404Z,75.12
2023-01-28T10:29:30.389Z,75.32
2023-01-28T10:30:30.374Z,75.53
2023-01-28T10:31:30.418Z,75.74
2023-01-28T10:32:30.371Z,75.63
2023-01-28T10:33:30.349Z,75.63
2023-01-28T10:34:30.358Z,75.53
2023-01-28T10:35:30.324Z,75.63
2023-01-28T10:36:30.328Z,75.63
2023-01-28T10:37:30.416Z,75.63
2023-01-28T10:38:30.304Z,75.74
2023-01-28T10:39:30.414Z,75.74
2023-01-28T10:40:30.288Z,75.74
2023-01-28T10:41:30.484Z,75.71
2023-01-28T10:42:30.279Z,75.71
2023-01-28T10:43:30.236Z,76.23
2023-01-28T10:44:30.235Z,76.23
2023-01-28T10:45:30.268Z,75.81
2023-01-28T10:46:30.212Z,75.46
2023-01-28T10:47:31.042Z,75.36
2023-01-28T10:48:30.188Z,74.87
2023-01-28T10:49:30.190Z,74.87
2023-01-28T10:50:30.182Z,75.08
2023-01-28T10:51:30.139Z,75.18
2023-01-28T10:52:30.139Z,75.18
2023-01-28T10:53:30.140Z,74.87
2023-01-28T10:54:30.132Z,74.77
2023-01-28T10:55:30.110Z,74.84
2023-01-28T10:56:30.093Z,74.66
2023-01-28T10:57:30.079Z,74.66
2023-01-28T10:58:30.073Z,74.87
2023-01-28T10:59:30.070Z,74.56
2023-01-28T11:00:30.058Z,74.77
2023-01-28T11:01:30.054Z,74.77
2023-01-28T11:02:30.085Z,74.77
2023-01-28T11:03:30.035Z,74.66
2023-01-28T11:04:30.031Z,74.73
2023-01-28T11:05:30.002Z,75.05
2023-01-28T11:06:29.984Z,75.15
2023-01-28T11:07:29.973Z,74.60
2023-01-28T11:08:29.989Z,74.07
2023-01-28T11:09:29.959Z,73.86
2023-01-28T11:10:29.944Z,73.66
2023-01-28T11:11:29.975Z,73.76
2023-01-28T11:12:29.936Z,73.86
2023-01-28T11:13:29.935Z,73.76
2023-01-28T11:14:29.911Z,73.45
2023-01-28T11:15:29.899Z,73.55
2023-01-28T11:16:29.889Z,73.55
2023-01-28T11:17:29.923Z,73.27
2023-01-28T11:18:29.846Z,73.48
2023-01-28T11:19:29.844Z,73.79
2023-01-28T11:20:29.824Z,73.76
2023-01-28T11:21:29.841Z,73.55
2023-01-28T11:22:29.801Z,73.24
2023-01-28T11:23:29.809Z,73.13
2023-01-28T11:24:29.941Z,72.92
2023-01-28T11:25:29.790Z,73.13
2023-01-28T11:26:29.754Z,72.96
2023-01-28T11:27:29.768Z,73.27
2023-01-28T11:28:29.736Z,73.38
2023-01-28T11:29:29.731Z,73.48
2023-01-28T11:30:29.743Z,73.38
2023-01-28T11:31:29.786Z,73.38
2023-01-28T11:32:29.698Z,73.69
2023-01-28T11:33:29.688Z,73.90
2023-01-28T11:34:29.705Z,74.01
2023-01-28T11:35:29.663Z,73.90
2023-01-28T11:36:29.654Z,73.69
2023-01-28T11:37:29.662Z,73.27
2023-01-28T11:38:29.632Z,73.48
2023-01-28T11:39:29.733Z,73.38
2023-01-28T11:40:29.595Z,73.48
2023-01-28T11:41:29.807Z,73.38
2023-01-28T11:42:29.627Z,73.52
2023-01-28T11:43:29.588Z,73.69
2023-01-28T11:44:29.559Z,73.48
2023-01-28T11:45:29.674Z,73.48
2023-01-28T11:46:29.527Z,73.69
2023-01-28T11:47:29.539Z,73.69
2023-01-28T11:48:29.517Z,73.69
2023-01-28T11:49:29.527Z,73.52
2023-01-28T11:50:29.506Z,73.48
2023-01-28T11:51:29.489Z,73.52
2023-01-28T11:52:38.767Z,73.41
2023-01-28T11:53:29.482Z,73.20
2023-01-28T11:54:29.465Z,73.41
2023-01-28T11:55:29.447Z,73.62
2023-01-28T11:56:29.425Z,73.41
2023-01-28T11:57:29.429Z,73.52
2023-01-28T11:58:29.413Z,73.62
2023-01-28T11:59:29.393Z,73.72
2023-01-28T12:00:29.379Z,73.62
2023-01-28T12:01:29.408Z,73.69
2023-01-28T12:02:29.403Z,73.69
2023-01-28T12:03:29.339Z,73.79
2023-01-28T12:04:29.380Z,73.48
2023-01-28T12:05:29.337Z,73.48
2023-01-28T12:06:29.319Z,73.58
2023-01-28T12:07:29.378Z,73.86
2023-01-28T12:08:29.295Z,74.25
2023-01-28T12:09:29.382Z,74.25
2023-01-28T12:10:29.278Z,73.62
2023-01-28T12:11:29.262Z,72.89
2023-01-28T12:12:29.265Z,72.37
2023-01-28T12:13:29.241Z,72.37
2023-01-28T12:14:29.274Z,72.41
2023-01-28T12:15:29.231Z,72.58
2023-01-28T12:16:29.186Z,73.00
2023-01-28T12:17:29.232Z,72.09
2023-01-28T12:18:29.230Z,71.88
2023-01-28T12:19:29.164Z,71.88
2023-01-28T12:20:29.157Z,71.88
2023-01-28T12:21:29.172Z,72.09
2023-01-28T12:22:29.145Z,72.30
2023-01-28T12:23:29.136Z,72.33
2023-01-28T12:24:29.196Z,72.72
2023-01-28T12:25:29.096Z,72.92
2023-01-28T12:26:29.093Z,72.92
2023-01-28T12:27:29.070Z,72.82
2023-01-28T12:28:29.069Z,72.72
2023-01-28T12:29:29.070Z,72.72
2023-01-28T12:30:29.062Z,72.61
2023-01-28T12:31:29.137Z,72.61
2023-01-28T12:32:29.040Z,72.51
2023-01-28T12:33:29.026Z,72.19
2023-01-28T12:34:29.005Z,71.88
2023-01-28T12:35:29.002Z,72.19
2023-01-28T12:36:28.961Z,72.19
2023-01-28T12:37:28.960Z,72.51
2023-01-28T12:38:28.978Z,72.92
2023-01-28T12:39:28.936Z,72.78
2023-01-28T12:40:28.924Z,72.37
2023-01-28T12:41:28.918Z,72.41
2023-01-28T12:42:28.923Z,72.47
2023-01-28T12:43:28.900Z,72.37
2023-01-28T12:44:28.874Z,72.58
2023-01-28T12:45:28.911Z,72.47
2023-01-28T12:46:28.860Z,72.37
2023-01-28T12:47:28.874Z,71.95
2023-01-28T12:48:28.826Z,71.57
2023-01-28T12:49:28.833Z,71.36
2023-01-28T12:50:28.818Z,71.57
2023-01-28T12:51:28.798Z,71.43
2023-01-28T12:52:28.809Z,71.22